sensor_id;sensor_type;location;lat;lon;timestamp;P1;durP1;ratioP1;P2;durP2;ratioP2
18399;SDS011;9326;49.468;11.008;2023-01-15T00:01:24;4.60;;;3.10;;
18399;SDS011;9326;49.468;11.008;2023-01-15T00:03:52;3.63;;;3.30;;
18399;SDS011;9326;49.468;11.008;2023-01-15T00:06:21;5.47;;;4.97;;
18399;SDS011;9326;49.468;11.008;2023-01-15T00:08:50;4.63;;;2.27;;
18399;SDS011;9326;49.468;11.008;2023-01-15T00:11:17;2.40;;;2.10;;
18399;SDS011;9326;49.468;11.008;2023-01-15T00:13:44;2.97;;;1.77;;
18399;SDS011;9326;49.468;11.008;2023-01-15T00:16:12;2.90;;;1.67;;
18399;SDS011;9326;49.468;11.008;2023-01-15T00:18:40;2.97;;;1.87;;
18399;SDS011;9326;49.468;11.008;2023-01-15T00:21:08;1.97;;;1.40;;
18399;SDS011;9326;49.468;11.008;2023-01-15T00:23:36;2.53;;;1.80;;
18399;SDS011;9326;49.468;11.008;2023-01-15T00:26:25;1.40;;;1.30;;
18399;SDS011;9326;49.468;11.008;2023-01-15T00:29:10;1.60;;;1.50;;
18399;SDS011;9326;49.468;11.008;2023-01-15T00:31:37;1.60;;;1.07;;
18399;SDS011;9326;49.468;11.008;2023-01-15T00:34:04;1.73;;;0.83;;
18399;SDS011;9326;49.468;11.008;2023-01-15T00:36:31;2.30;;;1.30;;
18399;SDS011;9326;49.468;11.008;2023-01-15T00:38:58;1.60;;;1.00;;
18399;SDS011;9326;49.468;11.008;2023-01-15T00:41:27;1.77;;;1.10;;
18399;SDS011;9326;49.468;11.008;2023-01-15T00:43:54;0.90;;;0.90;;
18399;SDS011;9326;49.468;11.008;2023-01-15T00:46:21;1.10;;;1.00;;
18399;SDS011;9326;49.468;11.008;2023-01-15T00:48:48;3.03;;;1.27;;
18399;SDS011;9326;49.468;11.008;2023-01-15T00:51:15;1.80;;;1.50;;
18399;SDS011;9326;49.468;11.008;2023-01-15T00:53:42;3.37;;;3.07;;
18399;SDS011;9326;49.468;11.008;2023-01-15T00:56:09;4.07;;;3.63;;
18399;SDS011;9326;49.468;11.008;2023-01-15T00:58:38;1.30;;;1.20;;
18399;SDS011;9326;49.468;11.008;2023-01-15T06:02:18;0.40;;;0.40;;
18399;SDS011;9326;49.468;11.008;2023-01-15T06:04:45;1.47;;;0.30;;
18399;SDS011;9326;49.468;11.008;2023-01-15T06:07:12;0.40;;;0.40;;
18399;SDS011;9326;49.468;11.008;2023-01-15T06:09:41;0.83;;;0.40;;
18399;SDS011;9326;49.468;11.008;2023-01-15T06:12:08;0.97;;;0.47;;
18399;SDS011;9326;49.468;11.008;2023-01-15T06:14:35;1.27;;;0.70;;
18399;SDS011;9326;49.468;11.008;2023-01-15T06:17:02;0.40;;;0.40;;
18399;SDS011;9326;49.468;11.008;2023-01-15T06:19:30;0.53;;;0.47;;
18399;SDS011;9326;49.468;11.008;2023-01-15T06:21:57;1.63;;;0.50;;
18399;SDS011;9326;49.468;11.008;2023-01-15T06:24:24;1.10;;;0.40;;
18399;SDS011;9326;49.468;11.008;2023-01-15T06:26:51;2.23;;;0.30;;
18399;SDS011;9326;49.468;11.008;2023-01-15T06:29:18;0.37;;;0.33;;
18399;SDS011;9326;49.468;11.008;2023-01-15T06:31:45;0.43;;;0.27;;
18399;SDS011;9326;49.468;11.008;2023-01-15T06:34:13;0.30;;;0.20;;
18399;SDS011;9326;49.468;11.008;2023-01-15T06:36:41;0.10;;;0.10;;
18399;SDS011;9326;49.468;11.008;2023-01-15T06:39:08;0.40;;;0.20;;
18399;SDS011;9326;49.468;11.008;2023-01-15T06:41:35;0.60;;;0.60;;
18399;SDS011;9326;49.468;11.008;2023-01-15T06:44:20;0.20;;;0.20;;
18399;SDS011;9326;49.468;11.008;2023-01-15T06:47:10;0.53;;;0.20;;
18399;SDS011;9326;49.468;11.008;2023-01-15T06:49:48;0.00;;;0.00;;
18399;SDS011;9326;49.468;11.008;2023-01-15T06:52:17;0.13;;;0.10;;
18399;SDS011;9326;49.468;11.008;2023-01-15T06:54:44;0.30;;;0.10;;
18399;SDS011;9326;49.468;11.008;2023-01-15T06:57:11;0.40;;;0.10;;
18399;SDS011;9326;49.468;11.008;2023-01-15T06:59:38;0.20;;;0.20;;
18399;SDS011;9326;49.468;11.008;2023-01-15T07:02:05;0.20;;;0.20;;
18399;SDS011;9326;49.468;11.008;2023-01-15T07:04:32;0.30;;;0.20;;
18399;SDS011;9326;49.468;11.008;2023-01-15T07:06:59;0.10;;;0.10;;
18399;SDS011;9326;49.468;11.008;2023-01-15T07:09:28;0.30;;;0.30;;
18399;SDS011;9326;49.468;11.008;2023-01-15T07:11:55;0.37;;;0.20;;
18399;SDS011;9326;49.468;11.008;2023-01-15T07:14:22;0.30;;;0.30;;
18399;SDS011;9326;49.468;11.008;2023-01-15T07:16:50;0.83;;;0.40;;
18399;SDS011;9326;49.468;11.008;2023-01-15T07:19:18;0.40;;;0.20;;
18399;SDS011;9326;49.468;11.008;2023-01-15T07:21:45;0.27;;;0.27;;
18399;SDS011;9326;49.468;11.008;2023-01-15T07:24:12;0.67;;;0.20;;
18399;SDS011;9326;49.468;11.008;2023-01-15T07:26:41;1.17;;;0.30;;
18399;SDS011;9326;49.468;11.008;2023-01-15T07:29:09;0.60;;;0.40;;
18399;SDS011;9326;49.468;11.008;2023-01-15T07:31:36;0.20;;;0.20;;
18399;SDS011;9326;49.468;11.008;2023-01-15T07:34:04;0.20;;;0.20;;
18399;SDS011;9326;49.468;11.008;2023-01-15T07:36:31;0.67;;;0.30;;
18399;SDS011;9326;49.468;11.008;2023-01-15T07:38:58;0.30;;;0.30;;
18399;SDS011;9326;49.468;11.008;2023-01-15T07:41:25;0.80;;;0.80;;
18399;SDS011;9326;49.468;11.008;2023-01-15T07:44:12;0.60;;;0.30;;
18399;SDS011;9326;49.468;11.008;2023-01-15T07:46:57;0.60;;;0.60;;
18399;SDS011;9326;49.468;11.008;2023-01-15T07:49:42;0.60;;;0.60;;
18399;SDS011;9326;49.468;11.008;2023-01-15T07:52:12;0.70;;;0.60;;
18399;SDS011;9326;49.468;11.008;2023-01-15T07:54:39;1.10;;;0.70;;
18399;SDS011;9326;49.468;11.008;2023-01-15T07:57:06;0.70;;;0.70;;
18399;SDS011;9326;49.468;11.008;2023-01-15T07:59:35;0.67;;;0.60;;
18399;SDS011;9326;49.468;11.008;2023-01-15T08:02:02;1.20;;;0.97;;
18399;SDS011;9326;49.468;11.008;2023-01-15T08:04:30;0.70;;;0.70;;
18399;SDS011;9326;49.468;11.008;2023-01-15T08:06:57;0.40;;;0.40;;
18399;SDS011;9326;49.468;11.008;2023-01-15T08:09:25;0.50;;;0.50;;
18399;SDS011;9326;49.468;11.008;2023-01-15T08:11:52;0.53;;;0.30;;
18399;SDS011;9326;49.468;11.008;2023-01-15T08:14:38;0.20;;;0.20;;
18399;SDS011;9326;49.468;11.008;2023-01-15T08:17:23;0.40;;;0.23;;
18399;SDS011;9326;49.468;11.008;2023-01-15T08:19:50;0.87;;;0.37;;
18399;SDS011;9326;49.468;11.008;2023-01-15T08:22:17;0.30;;;0.20;;
18399;SDS011;9326;49.468;11.008;2023-01-15T08:24:44;0.20;;;0.20;;
18399;SDS011;9326;49.468;11.008;2023-01-15T08:27:11;0.67;;;0.30;;
18399;SDS011;9326;49.468;11.008;2023-01-15T08:29:40;0.30;;;0.20;;
18399;SDS011;9326;49.468;11.008;2023-01-15T08:32:07;0.30;;;0.30;;
18399;SDS011;9326;49.468;11.008;2023-01-15T08:34:34;0.30;;;0.30;;
18399;SDS011;9326;49.468;11.008;2023-01-15T08:37:01;0.30;;;0.30;;
18399;SDS011;9326;49.468;11.008;2023-01-15T08:39:28;0.30;;;0.23;;
18399;SDS011;9326;49.468;11.008;2023-01-15T08:41:55;1.20;;;0.60;;
18399;SDS011;9326;49.468;11.008;2023-01-15T08:44:22;1.17;;;0.50;;
18399;SDS011;9326;49.468;11.008;2023-01-15T08:46:51;0.30;;;0.30;;
18399;SDS011;9326;49.468;11.008;2023-01-15T08:49:18;0.40;;;0.30;;
18399;SDS011;9326;49.468;11.008;2023-01-15T08:51:46;0.30;;;0.10;;
18399;SDS011;9326;49.468;11.008;2023-01-15T08:54:15;0.53;;;0.23;;
18399;SDS011;9326;49.468;11.008;2023-01-15T08:56:42;0.87;;;0.23;;
18399;SDS011;9326;49.468;11.008;2023-01-15T08:59:10;0.43;;;0.40;;
18399;SDS011;9326;49.468;11.008;2023-01-15T09:01:37;0.27;;;0.27;;
18399;SDS011;9326;49.468;11.008;2023-01-15T09:04:06;0.57;;;0.30;;
18399;SDS011;9326;49.468;11.008;2023-01-15T09:06:33;0.30;;;0.30;;
18399;SDS011;9326;49.468;11.008;2023-01-15T09:09:00;0.60;;;0.40;;
18399;SDS011;9326;49.468;11.008;2023-01-15T09:11:27;1.37;;;0.40;;
18399;SDS011;9326;49.468;11.008;2023-01-15T09:13:54;0.83;;;0.70;;
18399;SDS011;9326;49.468;11.008;2023-01-15T09:16:21;0.67;;;0.40;;
18399;SDS011;9326;49.468;11.008;2023-01-15T09:18:50;1.23;;;0.40;;
18399;SDS011;9326;49.468;11.008;2023-01-15T09:21:19;0.30;;;0.30;;
18399;SDS011;9326;49.468;11.008;2023-01-15T09:23:46;1.27;;;0.60;;
18399;SDS011;9326;49.468;11.008;2023-01-15T09:26:21;0.60;;;0.50;;
18399;SDS011;9326;49.468;11.008;2023-01-15T09:28:49;1.10;;;0.60;;
18399;SDS011;9326;49.468;11.008;2023-01-15T09:31:16;0.80;;;0.40;;
18399;SDS011;9326;49.468;11.008;2023-01-15T09:33:43;2.03;;;0.50;;
18399;SDS011;9326;49.468;11.008;2023-01-15T09:36:13;1.07;;;0.33;;
18399;SDS011;9326;49.468;11.008;2023-01-15T09:38:41;0.77;;;0.40;;
18399;SDS011;9326;49.468;11.008;2023-01-15T09:41:09;1.30;;;0.40;;
18399;SDS011;9326;49.468;11.008;2023-01-15T09:43:59;1.63;;;0.60;;
18399;SDS011;9326;49.468;11.008;2023-01-15T09:46:28;0.70;;;0.53;;
18399;SDS011;9326;49.468;11.008;2023-01-15T09:49:00;0.47;;;0.37;;
18399;SDS011;9326;49.468;11.008;2023-01-15T09:51:30;0.70;;;0.60;;
18399;SDS011;9326;49.468;11.008;2023-01-15T09:54:10;0.47;;;0.40;;
18399;SDS011;9326;49.468;11.008;2023-01-15T09:56:40;0.70;;;0.60;;
18399;SDS011;9326;49.468;11.008;2023-01-15T09:59:12;1.43;;;0.30;;
18399;SDS011;9326;49.468;11.008;2023-01-15T10:01:41;3.57;;;2.33;;
18399;SDS011;9326;49.468;11.008;2023-01-15T10:04:11;1.47;;;0.70;;
18399;SDS011;9326;49.468;11.008;2023-01-15T10:06:40;0.80;;;0.50;;
18399;SDS011;9326;49.468;11.008;2023-01-15T10:09:11;0.83;;;0.70;;
18399;SDS011;9326;49.468;11.008;2023-01-15T10:11:41;1.07;;;0.57;;
18399;SDS011;9326;49.468;11.008;2023-01-15T10:14:34;2.93;;;0.70;;
18399;SDS011;9326;49.468;11.008;2023-01-15T10:17:04;0.63;;;0.50;;
18399;SDS011;9326;49.468;11.008;2023-01-15T10:19:31;0.73;;;0.50;;
18399;SDS011;9326;49.468;11.008;2023-01-15T10:21:59;1.20;;;0.63;;
18399;SDS011;9326;49.468;11.008;2023-01-15T10:24:31;0.60;;;0.40;;
18399;SDS011;9326;49.468;11.008;2023-01-15T10:27:03;0.70;;;0.50;;
18399;SDS011;9326;49.468;11.008;2023-01-15T10:29:32;0.97;;;0.60;;
18399;SDS011;9326;49.468;11.008;2023-01-15T10:32:03;0.77;;;0.40;;
18399;SDS011;9326;49.468;11.008;2023-01-15T10:34:40;1.40;;;0.50;;
18399;SDS011;9326;49.468;11.008;2023-01-15T10:37:15;0.63;;;0.50;;
18399;SDS011;9326;49.468;11.008;2023-01-15T10:39:46;0.50;;;0.50;;
18399;SDS011;9326;49.468;11.008;2023-01-15T10:42:16;0.63;;;0.63;;
18399;SDS011;9326;49.468;11.008;2023-01-15T10:44:49;0.60;;;0.60;;
18399;SDS011;9326;49.468;11.008;2023-01-15T10:47:20;1.50;;;0.60;;
18399;SDS011;9326;49.468;11.008;2023-01-15T10:49:48;1.10;;;0.83;;
18399;SDS011;9326;49.468;11.008;2023-01-15T10:52:20;0.80;;;0.80;;
18399;SDS011;9326;49.468;11.008;2023-01-15T10:54:51;0.93;;;0.73;;
18399;SDS011;9326;49.468;11.008;2023-01-15T10:57:20;1.10;;;1.00;;
18399;SDS011;9326;49.468;11.008;2023-01-15T10:59:53;0.93;;;0.80;;
18399;SDS011;9326;49.468;11.008;2023-01-15T11:02:25;1.37;;;0.90;;
18399;SDS011;9326;49.468;11.008;2023-01-15T11:04:53;1.40;;;1.30;;
18399;SDS011;9326;49.468;11.008;2023-01-15T11:07:21;1.10;;;1.00;;
18399;SDS011;9326;49.468;11.008;2023-01-15T11:09:52;1.33;;;1.00;;
18399;SDS011;9326;49.468;11.008;2023-01-15T11:12:20;0.87;;;0.83;;
18399;SDS011;9326;49.468;11.008;2023-01-15T11:15:17;0.90;;;0.87;;
18399;SDS011;9326;49.468;11.008;2023-01-15T11:18:06;1.20;;;0.70;;
18399;SDS011;9326;49.468;11.008;2023-01-15T11:20:55;1.17;;;0.73;;
18399;SDS011;9326;49.468;11.008;2023-01-15T11:23:22;0.67;;;0.67;;
18399;SDS011;9326;49.468;11.008;2023-01-15T11:25:51;2.33;;;1.47;;
18399;SDS011;9326;49.468;11.008;2023-01-15T11:28:30;0.77;;;0.77;;
18399;SDS011;9326;49.468;11.008;2023-01-15T11:30:59;1.10;;;1.00;;
18399;SDS011;9326;49.468;11.008;2023-01-15T11:33:27;1.90;;;1.37;;
18399;SDS011;9326;49.468;11.008;2023-01-15T11:35:57;2.20;;;2.00;;
18399;SDS011;9326;49.468;11.008;2023-01-15T11:38:24;2.57;;;1.90;;
18399;SDS011;9326;49.468;11.008;2023-01-15T11:40:55;2.03;;;1.50;;
18399;SDS011;9326;49.468;11.008;2023-01-15T11:43:23;1.77;;;1.63;;
18399;SDS011;9326;49.468;11.008;2023-01-15T11:46:22;1.73;;;1.33;;
18399;SDS011;9326;49.468;11.008;2023-01-15T11:49:07;1.70;;;1.07;;
18399;SDS011;9326;49.468;11.008;2023-01-15T11:51:52;1.30;;;0.83;;
18399;SDS011;9326;49.468;11.008;2023-01-15T11:54:21;1.53;;;1.17;;
18399;SDS011;9326;49.468;11.008;2023-01-15T11:56:50;0.60;;;0.60;;
18399;SDS011;9326;49.468;11.008;2023-01-15T11:59:19;0.60;;;0.60;;
18399;SDS011;9326;49.468;11.008;2023-01-15T12:01:48;0.40;;;0.40;;
18399;SDS011;9326;49.468;11.008;2023-01-15T12:04:23;0.50;;;0.50;;
18399;SDS011;9326;49.468;11.008;2023-01-15T12:06:51;0.80;;;0.70;;
18399;SDS011;9326;49.468;11.008;2023-01-15T12:09:21;0.80;;;0.70;;
18399;SDS011;9326;49.468;11.008;2023-01-15T12:11:53;0.60;;;0.60;;
18399;SDS011;9326;49.468;11.008;2023-01-15T12:14:26;0.90;;;0.70;;
18399;SDS011;9326;49.468;11.008;2023-01-15T12:16:57;1.13;;;1.03;;
18399;SDS011;9326;49.468;11.008;2023-01-15T12:19:29;0.70;;;0.70;;
18399;SDS011;9326;49.468;11.008;2023-01-15T12:22:04;0.60;;;0.60;;
18399;SDS011;9326;49.468;11.008;2023-01-15T12:24:36;3.10;;;1.70;;
18399;SDS011;9326;49.468;11.008;2023-01-15T12:27:13;2.57;;;1.70;;
18399;SDS011;9326;49.468;11.008;2023-01-15T12:29:42;1.20;;;1.10;;
18399;SDS011;9326;49.468;11.008;2023-01-15T12:32:12;1.20;;;0.90;;
18399;SDS011;9326;49.468;11.008;2023-01-15T12:34:41;0.70;;;0.70;;
18399;SDS011;9326;49.468;11.008;2023-01-15T12:37:09;0.60;;;0.60;;
18399;SDS011;9326;49.468;11.008;2023-01-15T12:39:41;0.70;;;0.70;;
18399;SDS011;9326;49.468;11.008;2023-01-15T12:42:14;0.80;;;0.80;;
18399;SDS011;9326;49.468;11.008;2023-01-15T12:45:00;1.10;;;1.00;;
18399;SDS011;9326;49.468;11.008;2023-01-15T12:47:30;1.47;;;1.00;;
18399;SDS011;9326;49.468;11.008;2023-01-15T12:49:59;0.60;;;0.60;;
18399;SDS011;9326;49.468;11.008;2023-01-15T12:52:30;1.10;;;0.70;;
18399;SDS011;9326;49.468;11.008;2023-01-15T12:55:00;0.60;;;0.60;;
18399;SDS011;9326;49.468;11.008;2023-01-15T12:57:34;0.57;;;0.47;;
18399;SDS011;9326;49.468;11.008;2023-01-15T13:00:03;1.90;;;0.90;;
18399;SDS011;9326;49.468;11.008;2023-01-15T13:02:34;1.10;;;1.00;;
18399;SDS011;9326;49.468;11.008;2023-01-15T13:05:06;0.50;;;0.50;;
18399;SDS011;9326;49.468;11.008;2023-01-15T13:07:35;0.50;;;0.50;;
18399;SDS011;9326;49.468;11.008;2023-01-15T13:10:03;1.57;;;0.97;;
18399;SDS011;9326;49.468;11.008;2023-01-15T13:12:34;1.57;;;1.33;;
18399;SDS011;9326;49.468;11.008;2023-01-15T13:15:02;2.73;;;2.03;;
18399;SDS011;9326;49.468;11.008;2023-01-15T13:17:32;1.43;;;1.10;;
18399;SDS011;9326;49.468;11.008;2023-01-15T13:20:18;1.57;;;1.30;;
18399;SDS011;9326;49.468;11.008;2023-01-15T13:22:51;2.57;;;2.03;;
18399;SDS011;9326;49.468;11.008;2023-01-15T13:25:25;1.30;;;1.10;;
18399;SDS011;9326;49.468;11.008;2023-01-15T13:27:58;1.40;;;1.30;;
18399;SDS011;9326;49.468;11.008;2023-01-15T13:30:31;1.33;;;1.10;;
18399;SDS011;9326;49.468;11.008;2023-01-15T13:33:03;0.70;;;0.70;;
18399;SDS011;9326;49.468;11.008;2023-01-15T13:35:44;1.67;;;1.40;;
18399;SDS011;9326;49.468;11.008;2023-01-15T13:38:13;1.93;;;0.80;;
18399;SDS011;9326;49.468;11.008;2023-01-15T13:40:43;1.20;;;0.60;;
18399;SDS011;9326;49.468;11.008;2023-01-15T13:43:20;2.00;;;0.90;;
18399;SDS011;9326;49.468;11.008;2023-01-15T13:45:50;1.47;;;0.90;;
18399;SDS011;9326;49.468;11.008;2023-01-15T13:48:18;0.60;;;0.60;;
18399;SDS011;9326;49.468;11.008;2023-01-15T13:50:50;1.20;;;0.70;;
18399;SDS011;9326;49.468;11.008;2023-01-15T13:53:21;0.70;;;0.70;;
18399;SDS011;9326;49.468;11.008;2023-01-15T13:55:52;0.70;;;0.60;;
18399;SDS011;9326;49.468;11.008;2023-01-15T13:58:22;1.77;;;0.73;;
18399;SDS011;9326;49.468;11.008;2023-01-15T14:00:59;1.00;;;0.90;;
18399;SDS011;9326;49.468;11.008;2023-01-15T14:03:27;1.23;;;0.80;;
18399;SDS011;9326;49.468;11.008;2023-01-15T14:05:55;1.00;;;0.83;;
18399;SDS011;9326;49.468;11.008;2023-01-15T14:08:24;2.10;;;1.07;;
18399;SDS011;9326;49.468;11.008;2023-01-15T14:10:51;4.23;;;2.50;;
18399;SDS011;9326;49.468;11.008;2023-01-15T14:16:10;15.77;;;10.47;;
18399;SDS011;9326;49.468;11.008;2023-01-15T14:18:54;5.13;;;3.70;;
18399;SDS011;9326;49.468;11.008;2023-01-15T14:21:28;2.43;;;2.00;;
18399;SDS011;9326;49.468;11.008;2023-01-15T14:24:01;11.10;;;8.70;;
18399;SDS011;9326;49.468;11.008;2023-01-15T14:26:33;7.50;;;4.23;;
18399;SDS011;9326;49.468;11.008;2023-01-15T14:29:12;3.20;;;1.57;;
18399;SDS011;9326;49.468;11.008;2023-01-15T14:31:55;3.03;;;1.70;;
18399;SDS011;9326;49.468;11.008;2023-01-15T14:34:25;3.90;;;1.70;;
18399;SDS011;9326;49.468;11.008;2023-01-15T14:36:55;11.10;;;6.90;;
18399;SDS011;9326;49.468;11.008;2023-01-15T14:39:37;7.33;;;4.67;;
18399;SDS011;9326;49.468;11.008;2023-01-15T14:42:07;6.50;;;4.07;;
18399;SDS011;9326;49.468;11.008;2023-01-15T14:44:59;7.03;;;3.70;;
18399;SDS011;9326;49.468;11.008;2023-01-15T14:47:30;3.07;;;1.40;;
18399;SDS011;9326;49.468;11.008;2023-01-15T14:49:59;2.77;;;1.33;;
18399;SDS011;9326;49.468;11.008;2023-01-15T14:52:26;2.57;;;1.60;;
18399;SDS011;9326;49.468;11.008;2023-01-15T14:54:53;2.00;;;1.17;;
18399;SDS011;9326;49.468;11.008;2023-01-15T14:57:21;1.10;;;1.00;;
18399;SDS011;9326;49.468;11.008;2023-01-15T14:59:51;1.17;;;1.03;;
18399;SDS011;9326;49.468;11.008;2023-01-15T15:02:20;1.37;;;1.27;;
18399;SDS011;9326;49.468;11.008;2023-01-15T15:04:51;2.10;;;1.20;;
18399;SDS011;9326;49.468;11.008;2023-01-15T15:07:19;2.60;;;1.60;;
18399;SDS011;9326;49.468;11.008;2023-01-15T15:09:49;2.37;;;1.00;;
18399;SDS011;9326;49.468;11.008;2023-01-15T15:12:20;8.07;;;4.93;;
18399;SDS011;9326;49.468;11.008;2023-01-15T15:14:52;1.40;;;0.90;;
18399;SDS011;9326;49.468;11.008;2023-01-15T15:17:26;5.97;;;2.73;;
18399;SDS011;9326;49.468;11.008;2023-01-15T15:20:00;5.77;;;2.97;;
18399;SDS011;9326;49.468;11.008;2023-01-15T15:22:29;3.60;;;1.93;;
18399;SDS011;9326;49.468;11.008;2023-01-15T15:24:57;2.47;;;0.80;;
18399;SDS011;9326;49.468;11.008;2023-01-15T15:27:27;1.97;;;1.00;;
18399;SDS011;9326;49.468;11.008;2023-01-15T15:30:01;3.33;;;2.03;;
18399;SDS011;9326;49.468;11.008;2023-01-15T15:32:28;3.37;;;1.40;;
18399;SDS011;9326;49.468;11.008;2023-01-15T15:34:55;1.90;;;0.77;;
18399;SDS011;9326;49.468;11.008;2023-01-15T15:37:25;3.93;;;1.60;;
18399;SDS011;9326;49.468;11.008;2023-01-15T15:39:54;3.70;;;1.50;;
18399;SDS011;9326;49.468;11.008;2023-01-15T15:42:23;4.50;;;1.40;;
18399;SDS011;9326;49.468;11.008;2023-01-15T15:45:14;2.53;;;1.40;;
18399;SDS011;9326;49.468;11.008;2023-01-15T15:48:05;6.03;;;2.57;;
18399;SDS011;9326;49.468;11.008;2023-01-15T15:50:52;4.20;;;1.83;;
18399;SDS011;9326;49.468;11.008;2023-01-15T15:53:20;5.60;;;2.40;;
18399;SDS011;9326;49.468;11.008;2023-01-15T15:55:47;4.27;;;2.10;;
18399;SDS011;9326;49.468;11.008;2023-01-15T15:58:16;4.47;;;2.07;;
18399;SDS011;9326;49.468;11.008;2023-01-15T16:00:46;8.97;;;4.20;;
18399;SDS011;9326;49.468;11.008;2023-01-15T16:03:17;9.83;;;4.90;;
18399;SDS011;9326;49.468;11.008;2023-01-15T16:05:53;8.23;;;3.13;;
18399;SDS011;9326;49.468;11.008;2023-01-15T16:08:22;11.07;;;6.70;;
18399;SDS011;9326;49.468;11.008;2023-01-15T16:10:50;12.73;;;6.03;;
18399;SDS011;9326;49.468;11.008;2023-01-15T16:13:21;11.87;;;8.07;;
18399;SDS011;9326;49.468;11.008;2023-01-15T16:15:49;5.43;;;3.43;;
18399;SDS011;9326;49.468;11.008;2023-01-15T16:18:20;11.70;;;7.77;;
18399;SDS011;9326;49.468;11.008;2023-01-15T16:20:48;9.30;;;6.13;;
18399;SDS011;9326;49.468;11.008;2023-01-15T16:23:18;11.00;;;7.03;;
18399;SDS011;9326;49.468;11.008;2023-01-15T16:25:55;4.53;;;2.97;;
18399;SDS011;9326;49.468;11.008;2023-01-15T16:28:23;9.70;;;5.73;;
18399;SDS011;9326;49.468;11.008;2023-01-15T16:30:54;12.17;;;5.60;;
18399;SDS011;9326;49.468;11.008;2023-01-15T16:33:21;6.57;;;4.00;;
18399;SDS011;9326;49.468;11.008;2023-01-15T16:35:53;9.63;;;7.90;;
18399;SDS011;9326;49.468;11.008;2023-01-15T16:38:21;14.03;;;11.23;;
18399;SDS011;9326;49.468;11.008;2023-01-15T16:40:48;11.27;;;7.77;;
18399;SDS011;9326;49.468;11.008;2023-01-15T16:43:18;14.90;;;9.60;;
18399;SDS011;9326;49.468;11.008;2023-01-15T16:45:56;8.03;;;5.73;;
18399;SDS011;9326;49.468;11.008;2023-01-15T16:48:24;8.10;;;5.10;;
18399;SDS011;9326;49.468;11.008;2023-01-15T16:50:53;6.17;;;4.50;;
18399;SDS011;9326;49.468;11.008;2023-01-15T16:53:30;3.90;;;2.77;;
18399;SDS011;9326;49.468;11.008;2023-01-15T16:55:57;4.60;;;3.00;;
18399;SDS011;9326;49.468;11.008;2023-01-15T16:58:36;9.13;;;7.07;;
18399;SDS011;9326;49.468;11.008;2023-01-15T17:01:23;4.63;;;3.10;;
18399;SDS011;9326;49.468;11.008;2023-01-15T17:03:50;5.63;;;3.20;;
18399;SDS011;9326;49.468;11.008;2023-01-15T17:06:19;5.83;;;2.83;;
18399;SDS011;9326;49.468;11.008;2023-01-15T17:08:47;8.93;;;4.83;;
18399;SDS011;9326;49.468;11.008;2023-01-15T17:11:16;47.80;;;20.27;;
18399;SDS011;9326;49.468;11.008;2023-01-15T17:13:47;17.63;;;8.70;;
18399;SDS011;9326;49.468;11.008;2023-01-15T17:16:15;14.27;;;9.63;;
18399;SDS011;9326;49.468;11.008;2023-01-15T17:18:43;9.50;;;6.17;;
18399;SDS011;9326;49.468;11.008;2023-01-15T17:21:13;5.33;;;4.07;;
18399;SDS011;9326;49.468;11.008;2023-01-15T17:23:42;13.97;;;6.70;;
18399;SDS011;9326;49.468;11.008;2023-01-15T17:26:11;9.97;;;6.07;;
18399;SDS011;9326;49.468;11.008;2023-01-15T17:28:40;18.07;;;10.13;;
18399;SDS011;9326;49.468;11.008;2023-01-15T17:31:10;6.23;;;4.07;;
18399;SDS011;9326;49.468;11.008;2023-01-15T17:33:40;7.80;;;6.10;;
18399;SDS011;9326;49.468;11.008;2023-01-15T17:36:07;5.97;;;3.60;;
18399;SDS011;9326;49.468;11.008;2023-01-15T17:38:34;4.87;;;3.40;;
18399;SDS011;9326;49.468;11.008;2023-01-15T17:41:01;4.97;;;3.37;;
18399;SDS011;9326;49.468;11.008;2023-01-15T17:43:31;4.53;;;2.67;;
18399;SDS011;9326;49.468;11.008;2023-01-15T17:45:59;2.67;;;1.60;;
18399;SDS011;9326;49.468;11.008;2023-01-15T17:48:28;1.80;;;1.70;;
18399;SDS011;9326;49.468;11.008;2023-01-15T17:50:58;3.53;;;2.40;;
18399;SDS011;9326;49.468;11.008;2023-01-15T17:53:25;21.00;;;11.30;;
18399;SDS011;9326;49.468;11.008;2023-01-15T17:55:52;5.70;;;4.23;;
18399;SDS011;9326;49.468;11.008;2023-01-15T17:58:37;15.73;;;9.80;;
18399;SDS011;9326;49.468;11.008;2023-01-15T18:01:22;9.77;;;7.27;;
18399;SDS011;9326;49.468;11.008;2023-01-15T18:04:13;2.87;;;2.10;;
18399;SDS011;9326;49.468;11.008;2023-01-15T18:07:10;3.17;;;2.80;;
18399;SDS011;9326;49.468;11.008;2023-01-15T18:09:37;3.93;;;3.33;;
18399;SDS011;9326;49.468;11.008;2023-01-15T18:12:05;3.80;;;1.83;;
18399;SDS011;9326;49.468;11.008;2023-01-15T18:14:32;2.37;;;1.83;;
18399;SDS011;9326;49.468;11.008;2023-01-15T18:16:59;3.97;;;2.63;;
18399;SDS011;9326;49.468;11.008;2023-01-15T18:19:28;1.57;;;1.40;;
18399;SDS011;9326;49.468;11.008;2023-01-15T18:21:55;3.17;;;2.20;;
18399;SDS011;9326;49.468;11.008;2023-01-15T18:24:22;4.87;;;2.10;;
18399;SDS011;9326;49.468;11.008;2023-01-15T18:26:49;2.03;;;1.60;;
18399;SDS011;9326;49.468;11.008;2023-01-15T18:29:17;3.70;;;2.83;;
18399;SDS011;9326;49.468;11.008;2023-01-15T18:31:44;3.53;;;2.50;;
18399;SDS011;9326;49.468;11.008;2023-01-15T18:34:11;2.73;;;2.13;;
18399;SDS011;9326;49.468;11.008;2023-01-15T18:36:39;2.37;;;2.17;;
18399;SDS011;9326;49.468;11.008;2023-01-15T18:39:07;7.07;;;5.80;;
18399;SDS011;9326;49.468;11.008;2023-01-15T18:41:36;3.10;;;2.80;;
18399;SDS011;9326;49.468;11.008;2023-01-15T18:44:22;2.67;;;2.13;;
18399;SDS011;9326;49.468;11.008;2023-01-15T18:47:07;2.50;;;2.30;;
18399;SDS011;9326;49.468;11.008;2023-01-15T18:49:36;5.00;;;2.40;;
18399;SDS011;9326;49.468;11.008;2023-01-15T18:52:05;5.43;;;3.70;;
18399;SDS011;9326;49.468;11.008;2023-01-15T18:54:49;13.00;;;5.60;;
18399;SDS011;9326;49.468;11.008;2023-01-15T18:57:16;7.43;;;4.33;;
18399;SDS011;9326;49.468;11.008;2023-01-15T18:59:43;6.30;;;3.90;;
18399;SDS011;9326;49.468;11.008;2023-01-15T19:02:11;8.83;;;5.17;;
18399;SDS011;9326;49.468;11.008;2023-01-15T19:04:39;6.17;;;3.50;;
18399;SDS011;9326;49.468;11.008;2023-01-15T19:07:07;4.53;;;2.60;;
18399;SDS011;9326;49.468;11.008;2023-01-15T19:09:35;3.53;;;2.50;;
18399;SDS011;9326;49.468;11.008;2023-01-15T19:12:02;3.10;;;2.80;;
18399;SDS011;9326;49.468;11.008;2023-01-15T19:14:29;2.77;;;2.10;;
18399;SDS011;9326;49.468;11.008;2023-01-15T19:17:14;6.33;;;4.03;;
18399;SDS011;9326;49.468;11.008;2023-01-15T19:19:59;5.27;;;3.33;;
18399;SDS011;9326;49.468;11.008;2023-01-15T19:22:28;4.30;;;3.10;;
18399;SDS011;9326;49.468;11.008;2023-01-15T19:25:12;6.13;;;3.27;;
18399;SDS011;9326;49.468;11.008;2023-01-15T19:27:39;2.53;;;2.07;;
18399;SDS011;9326;49.468;11.008;2023-01-15T19:30:08;5.43;;;3.60;;
18399;SDS011;9326;49.468;11.008;2023-01-15T19:32:36;7.90;;;5.40;;
18399;SDS011;9326;49.468;11.008;2023-01-15T19:35:03;8.33;;;3.50;;
18399;SDS011;9326;49.468;11.008;2023-01-15T19:37:31;5.20;;;2.20;;
18399;SDS011;9326;49.468;11.008;2023-01-15T19:40:03;20.13;;;8.30;;
18399;SDS011;9326;49.468;11.008;2023-01-15T19:42:31;28.97;;;11.47;;
18399;SDS011;9326;49.468;11.008;2023-01-15T19:45:16;13.23;;;8.27;;
18399;SDS011;9326;49.468;11.008;2023-01-15T19:48:00;13.27;;;9.13;;
18399;SDS011;9326;49.468;11.008;2023-01-15T19:50:45;16.60;;;8.00;;
18399;SDS011;9326;49.468;11.008;2023-01-15T19:53:18;7.37;;;4.00;;
18399;SDS011;9326;49.468;11.008;2023-01-15T19:55:46;6.67;;;3.27;;
18399;SDS011;9326;49.468;11.008;2023-01-15T19:58:14;5.67;;;4.03;;
18399;SDS011;9326;49.468;11.008;2023-01-15T20:00:42;19.23;;;8.23;;
18399;SDS011;9326;49.468;11.008;2023-01-15T20:03:12;5.07;;;3.30;;
18399;SDS011;9326;49.468;11.008;2023-01-15T20:05:40;3.47;;;2.97;;
18399;SDS011;9326;49.468;11.008;2023-01-15T20:08:07;18.67;;;9.17;;
18399;SDS011;9326;49.468;11.008;2023-01-15T20:10:38;19.37;;;10.97;;
18399;SDS011;9326;49.468;11.008;2023-01-15T20:13:07;29.23;;;16.90;;